Time;durP1;ratioP1;P1;durP2;ratioP2;P2;SDS_P1;SDS_P2;PMS_P1;PMS_P2;Temp;Humidity;BMP_temperature;BMP_pressure;BME280_temperature;BME280_humidity;BME280_pressure;Samples;Min_cycle;Max_cycle;Signal;HPM_P1;HPM_P2
2022/08/12 00:44:27;;;;;;;3.97;2.05;;;13.40;99.90;;;;;;5075296;28;20401;-66
2022/08/12 00:46:59;;;;;;;3.25;2.45;;;13.40;99.90;;;;;;5075013;28;20020;-66
2022/08/12 00:49:26;;;;;;;3.58;1.83;;;13.40;99.90;;;;;;5075727;28;20059;-66
2022/08/12 00:52:08;;;;;;;2.78;1.92;;;13.40;99.90;;;;;;5075258;28;20082;-66
2022/08/12 00:54:49;;;;;;;2.08;1.80;;;13.40;99.90;;;;;;5057287;28;20032;-66
2022/08/12 00:57:21;;;;;;;5.38;2.20;;;13.30;99.90;;;;;;5057246;28;20028;-66
2022/08/12 00:59:51;;;;;;;3.58;2.20;;;13.20;99.90;;;;;;5075087;28;20033;-66
2022/08/12 01:02:33;;;;;;;3.30;2.03;;;13.20;99.90;;;;;;5074990;28;20028;-66
2022/08/12 01:13:28;;;;;;;2.35;1.65;;;13.00;99.90;;;;;;5074893;28;20026;-66
2022/08/12 01:16:01;;;;;;;3.93;2.07;;;13.10;99.90;;;;;;5056891;28;20028;-66
2022/08/12 01:18:31;;;;;;;2.17;1.98;;;13.10;99.90;;;;;;5056947;28;20515;-66
2022/08/12 01:21:25;;;;;;;2.83;2.00;;;13.00;99.90;;;;;;5056615;28;20032;-66
2022/08/12 01:23:50;;;;;;;5.97;2.58;;;13.00;99.90;;;;;;5074847;28;20032;-66
2022/08/12 01:26:19;;;;;;;4.35;1.85;;;13.00;99.90;;;;;;5056890;28;20025;-66
2022/08/12 01:28:47;;;;;;;3.88;2.47;;;13.00;99.90;;;;;;5074551;28;20028;-66
2022/08/12 01:31:15;;;;;;;2.15;1.95;;;13.00;99.90;;;;;;5074532;28;20032;-66
2022/08/12 01:33:58;;;;;;;3.00;2.30;;;12.90;99.90;;;;;;5056636;28;20363;-66
2022/08/12 01:36:26;;;;;;;2.47;1.98;;;12.90;99.90;;;;;;5056696;28;20371;-66
2022/08/12 01:38:55;;;;;;;6.20;2.35;;;12.90;99.90;;;;;;5073872;28;20074;-66
2022/08/12 01:41:24;;;;;;;3.08;2.03;;;12.90;99.90;;;;;;5056420;28;20482;-66
2022/08/12 01:43:50;;;;;;;;;;;12.90;99.90;;;;;;5056144;28;20029;-66
2022/08/12 01:46:36;;;;;;;9.60;2.72;;;12.80;99.90;;;;;;5073989;28;19911;-66
2022/08/12 01:49:32;;;;;;;3.53;2.28;;;12.80;99.90;;;;;;5074363;28;20020;-66
2022/08/12 01:52:05;;;;;;;4.57;1.98;;;12.70;99.90;;;;;;5056203;28;20119;-66
2022/08/12 01:54:43;;;;;;;2.60;2.08;;;12.70;99.90;;;;;;5074075;28;20035;-66
2022/08/12 01:57:40;;;;;;;2.20;1.55;;;12.70;99.90;;;;;;5056394;28;20039;-66
2022/08/12 02:00:11;;;;;;;3.72;2.15;;;12.60;99.90;;;;;;5055994;28;20032;-66
2022/08/12 02:02:59;;;;;;;2.20;1.75;;;12.60;99.90;;;;;;5074184;28;20107;-66
2022/08/12 02:11:27;;;;;;;3.45;2.10;;;12.50;99.90;;;;;;5073709;28;20040;-66
2022/08/12 02:14:11;;;;;;;3.60;2.22;;;12.50;99.90;;;;;;5074021;28;20021;-66
2022/08/12 02:17:00;;;;;;;4.68;2.30;;;12.50;99.90;;;;;;5056202;28;20066;-66
2022/08/12 02:19:28;;;;;;;3.42;2.22;;;12.40;99.90;;;;;;5055828;28;20065;-66
2022/08/12 02:22:29;;;;;;;4.03;2.17;;;12.40;99.90;;;;;;5073448;28;20086;-66
2022/08/12 02:25:10;;;;;;;7.40;2.10;;;12.50;99.90;;;;;;5073656;28;20302;-66
2022/08/12 02:27:44;;;;;;;2.97;2.10;;;12.50;99.90;;;;;;5056159;28;20024;-66
2022/08/12 02:30:16;;;;;;;4.75;2.00;;;12.50;99.90;;;;;;5073764;28;20112;-66
2022/08/12 02:32:44;;;;;;;5.25;2.30;;;12.40;99.90;;;;;;5073742;28;20029;-67
2022/08/12 02:35:18;;;;;;;2.43;2.20;;;12.40;99.90;;;;;;5056058;28;20032;-66
2022/08/12 02:37:45;;;;;;;2.95;2.42;;;12.40;99.90;;;;;;5073853;28;20032;-66
2022/08/12 02:40:13;;;;;;;3.90;2.13;;;12.40;99.90;;;;;;5073635;28;20132;-66
2022/08/12 02:42:53;;;;;;;3.60;2.35;;;12.40;99.90;;;;;;5073772;28;20029;-66
2022/08/12 02:45:36;;;;;;;6.50;3.00;;;12.30;99.90;;;;;;5073756;28;20017;-66
2022/08/12 02:48:06;;;;;;;4.35;2.25;;;12.30;99.90;;;;;;5073710;28;20112;-66
2022/08/12 02:50:38;;;;;;;4.15;2.90;;;12.20;99.90;;;;;;5073470;28;20033;-66
2022/08/12 02:53:06;;;;;;;5.22;2.55;;;12.20;99.90;;;;;;5055550;28;20025;-66
2022/08/12 02:55:34;;;;;;;3.17;2.05;;;12.20;99.90;;;;;;5075157;28;20052;-66
2022/08/12 02:58:02;;;;;;;4.60;2.00;;;12.20;99.90;;;;;;5078068;28;20028;-66
2022/08/12 03:00:28;;;;;;;2.20;2.00;;;12.20;99.90;;;;;;5077292;28;20282;-66
2022/08/12 03:02:59;;;;;;;4.07;2.25;;;12.10;99.90;;;;;;5077368;28;20024;-66
2022/08/12 03:05:26;;;;;;;4.75;2.20;;;12.10;99.90;;;;;;5077096;28;20028;-66
2022/08/12 03:07:58;;;;;;;3.22;2.30;;;12.10;99.90;;;;;;5077248;28;20048;-66
2022/08/12 03:10:28;;;;;;;7.88;2.30;;;12.00;99.90;;;;;;5077400;28;20404;-66
2022/08/12 03:12:57;;;;;;;6.63;2.50;;;12.00;99.90;;;;;;5076942;28;20074;-66
2022/08/12 03:15:23;;;;;;;2.47;2.10;;;12.10;99.90;;;;;;5059360;28;20424;-66
2022/08/12 03:17:55;;;;;;;3.03;2.33;;;12.10;99.90;;;;;;5077093;28;20369;-66
2022/08/12 03:20:21;;;;;;;4.85;2.70;;;12.00;99.90;;;;;;5076939;28;20027;-66
2022/08/12 03:22:49;;;;;;;4.50;2.75;;;12.00;99.90;;;;;;5076905;28;20115;-66
2022/08/12 03:25:23;;;;;;;2.55;2.20;;;12.00;99.90;;;;;;5077186;28;20021;-67
2022/08/12 03:27:54;;;;;;;3.13;2.40;;;12.00;99.90;;;;;;5077608;28;20020;-66
2022/08/12 03:30:31;;;;;;;2.55;2.10;;;12.00;99.90;;;;;;5077015;28;20074;-66
2022/08/12 03:32:59;;;;;;;4.28;2.20;;;12.00;99.90;;;;;;5077039;28;20055;-66
2022/08/12 03:35:29;;;;;;;4.43;2.30;;;12.00;99.90;;;;;;5076885;28;20040;-66
2022/08/12 03:38:01;;;;;;;2.40;2.20;;;12.00;99.90;;;;;;5077074;28;20016;-66
2022/08/12 04:02:45;;;;;;;3.70;2.70;;;12.10;99.90;;;;;;5076547;28;20036;-66
2022/08/12 04:05:11;;;;;;;2.58;2.05;;;12.10;99.90;;;;;;5058357;28;20028;-66
2022/08/12 04:07:38;;;;;;;3.13;2.17;;;12.10;99.90;;;;;;5075956;28;20132;-66
2022/08/12 04:10:05;;;;;;;2.58;2.13;;;12.10;99.90;;;;;;5075732;28;20166;-66
2022/08/12 04:15:18;;;;;;;2.85;2.40;;;12.20;99.90;;;;;;5075872;28;20547;-66
2022/08/12 04:17:46;;;;;;;1.90;1.80;;;12.20;99.90;;;;;;5075847;28;20025;-66
2022/08/12 04:20:18;;;;;;;4.30;2.27;;;12.20;99.90;;;;;;5075763;28;20116;-65
2022/08/12 04:22:44;;;;;;;4.22;2.30;;;12.30;99.90;;;;;;5058025;28;20031;-66
2022/08/12 04:25:11;;;;;;;2.80;2.30;;;12.30;99.90;;;;;;5058384;28;20043;-66
2022/08/12 04:27:38;;;;;;;5.32;2.33;;;12.30;99.90;;;;;;5075731;28;20107;-66
2022/08/12 04:30:06;;;;;;;8.68;2.47;;;12.40;99.90;;;;;;5075369;28;20386;-64
2022/08/12 04:32:34;;;;;;;4.10;2.38;;;12.50;99.90;;;;;;5075713;28;20074;-65
2022/08/12 04:35:00;;;;;;;5.20;1.98;;;12.50;99.90;;;;;;5057598;28;20033;-65
2022/08/12 04:37:26;;;;;;;3.45;1.95;;;12.60;99.90;;;;;;5057514;28;20028;-65
2022/08/12 04:39:52;;;;;;;2.63;1.90;;;12.60;99.90;;;;;;5075582;28;20131;-64
2022/08/12 04:42:19;;;;;;;3.08;1.90;;;12.70;99.90;;;;;;5075367;28;20037;-65
2022/08/12 04:44:44;;;;;;;2.55;1.95;;;12.70;99.90;;;;;;5057626;28;20021;-65
2022/08/12 04:47:15;;;;;;;5.00;2.70;;;12.70;99.90;;;;;;5075140;28;20027;-65
2022/08/12 04:49:43;;;;;;;3.13;1.90;;;12.80;99.90;;;;;;5075412;28;20017;-65
2022/08/12 04:52:09;;;;;;;2.78;1.88;;;12.80;99.90;;;;;;5057605;28;20056;-65
2022/08/12 04:54:36;;;;;;;7.28;2.10;;;12.90;99.90;;;;;;5075233;28;20524;-65
2022/08/12 04:57:03;;;;;;;2.83;1.90;;;12.90;99.90;;;;;;5074890;28;20043;-65
2022/08/12 04:59:29;;;;;;;2.88;1.95;;;13.00;99.90;;;;;;5075063;28;20017;-66
2022/08/12 05:01:56;;;;;;;4.68;2.50;;;13.10;99.90;;;;;;5056738;28;20037;-65
2022/08/12 05:04:24;;;;;;;3.25;2.10;;;13.20;99.90;;;;;;5074964;28;20033;-65
2022/08/12 05:06:50;;;;;;;4.53;2.03;;;13.20;99.90;;;;;;5075001;28;20034;-65
2022/08/12 05:09:16;;;;;;;5.30;2.33;;;13.30;99.90;;;;;;5057053;28;20123;-65
2022/08/12 05:11:45;;;;;;;5.82;2.00;;;13.40;99.90;;;;;;5074687;28;20527;-65
2022/08/12 05:14:12;;;;;;;7.50;2.17;;;13.50;99.90;;;;;;5074483;28;20082;-65
2022/08/12 05:16:38;;;;;;;4.00;2.00;;;13.60;99.90;;;;;;5074814;28;20052;-66
2022/08/12 05:19:04;;;;;;;2.35;1.88;;;13.60;99.90;;;;;;5074071;28;20023;-65
2022/08/12 05:21:30;;;;;;;2.17;1.98;;;13.70;99.90;;;;;;5074081;28;20478;-65
2022/08/12 05:23:56;;;;;;;5.78;2.95;;;13.80;99.90;;;;;;5039285;28;20064;-65
2022/08/12 05:26:21;;;;;;;5.07;2.63;;;13.90;99.90;;;;;;5016854;28;20018;-65
2022/08/12 05:28:48;;;;;;;6.85;2.20;;;14.00;99.90;;;;;;5043602;28;20025;-65
2022/08/12 05:31:16;;;;;;;1.67;1.55;;;14.00;99.90;;;;;;5054489;28;20079;-65
2022/08/12 05:33:44;;;;;;;3.47;1.80;;;14.20;99.90;;;;;;5054365;28;20025;-65
2022/08/12 05:36:13;;;;;;;6.37;2.23;;;14.30;99.90;;;;;;5054387;28;20112;-66
2022/08/12 05:38:55;;;;;;;7.00;1.60;;;14.40;99.90;;;;;;5036442;28;20036;-65
2022/08/12 05:41:31;;;;;;;7.90;1.98;;;14.60;99.90;;;;;;5036556;28;20589;-66
2022/08/12 05:43:59;;;;;;;2.75;1.63;;;14.90;99.90;;;;;;5036412;28;20112;-66
2022/08/12 05:46:27;;;;;;;2.95;1.23;;;15.30;99.90;;;;;;5036398;28;20116;-66
2022/08/12 05:48:55;;;;;;;2.83;1.45;;;15.60;99.90;;;;;;5054068;28;20406;-66
2022/08/12 05:51:25;;;;;;;1.70;1.30;;;15.80;99.90;;;;;;5053918;28;20063;-66
2022/08/12 05:53:52;;;;;;;5.63;1.63;;;16.00;99.90;;;;;;5054039;28;20029;-66
2022/08/12 05:56:22;;;;;;;2.60;1.20;;;16.20;99.90;;;;;;5036178;28;20028;-66
2022/08/12 05:58:50;;;;;;;1.70;1.40;;;16.40;99.90;;;;;;5036174;28;20032;-66
2022/08/12 06:01:16;;;;;;;2.83;1.30;;;16.70;99.90;;;;;;5035950;28;20033;-66
2022/08/12 06:03:41;;;;;;;4.15;1.25;;;16.90;99.90;;;;;;5054131;28;20025;-66
2022/08/12 06:06:08;;;;;;;1.55;0.80;;;17.30;99.90;;;;;;5053605;28;20033;-66
2022/08/12 06:08:34;;;;;;;4.05;1.00;;;17.60;99.90;;;;;;5053827;28;20100;-66
2022/08/12 06:11:03;;;;;;;2.35;1.20;;;17.80;99.90;;;;;;5036020;28;20167;-66
2022/08/12 06:13:29;;;;;;;3.95;1.20;;;18.10;99.90;;;;;;5053801;28;20028;-66
2022/08/12 06:15:55;;;;;;;3.05;0.85;;;18.40;99.90;;;;;;5053780;28;20052;-66
2022/08/12 06:18:21;;;;;;;1.10;0.90;;;18.90;99.90;;;;;;5035582;28;20035;-66
2022/08/12 06:20:52;;;;;;;3.05;1.10;;;19.30;99.90;;;;;;5053979;28;20112;-66
2022/08/12 06:23:18;;;;;;;1.85;1.13;;;19.70;99.90;;;;;;5053796;28;20029;-67
2022/08/12 06:25:45;;;;;;;1.88;0.98;;;19.90;99.90;;;;;;5053922;28;20032;-66
2022/08/12 06:28:19;;;;;;;1.60;1.00;;;20.00;99.90;;;;;;5053508;28;20021;-66
2022/08/12 06:30:45;;;;;;;2.95;0.95;;;20.10;99.90;;;;;;5036002;28;20029;-65
2022/08/12 06:33:12;;;;;;;2.30;1.00;;;20.10;99.90;;;;;;5053564;28;20023;-66
2022/08/12 06:35:41;;;;;;;0.80;0.80;;;20.00;99.90;;;;;;5053490;28;20112;-65
2022/08/12 06:38:27;;;;;;;3.80;0.93;;;19.90;99.90;;;;;;5053485;28;20110;-66
2022/08/12 06:43:43;;;;;;;5.25;1.00;;;19.90;99.90;;;;;;5053162;28;20045;-62
2022/08/12 06:46:10;;;;;;;4.40;0.95;;;19.80;99.90;;;;;;5053534;28;20029;-62
2022/08/12 06:48:36;;;;;;;2.60;1.50;;;19.70;99.90;;;;;;5053442;28;20351;-62
2022/08/12 06:51:03;;;;;;;4.05;0.93;;;19.70;99.90;;;;;;5035515;28;20035;-63
2022/08/12 06:53:31;;;;;;;2.38;1.13;;;19.70;99.90;;;;;;5053552;28;20025;-63
2022/08/12 06:55:59;;;;;;;1.23;0.82;;;19.70;99.90;;;;;;5053248;28;20017;-63
2022/08/12 06:58:29;;;;;;;5.50;0.90;;;19.70;99.90;;;;;;5053145;28;20033;-66
2022/08/12 07:00:56;;;;;;;1.80;0.77;;;19.60;99.90;;;;;;5035371;28;20120;-66
2022/08/12 07:03:29;;;;;;;4.00;0.85;;;19.50;99.90;;;;;;5053287;28;20037;-66
2022/08/12 07:06:06;;;;;;;5.50;2.58;;;19.60;99.90;;;;;;5053486;28;20021;-66
2022/08/12 07:08:33;;;;;;;3.10;1.00;;;19.70;99.90;;;;;;5053299;28;20033;-66
2022/08/12 07:11:02;;;;;;;2.58;1.33;;;19.60;99.90;;;;;;5053245;28;20025;-65
2022/08/12 07:13:42;;;;;;;3.93;1.03;;;19.70;99.90;;;;;;5053249;28;20033;-66
2022/08/12 07:16:09;;;;;;;0.88;0.82;;;19.90;99.90;;;;;;5035061;28;20025;-66
2022/08/12 07:18:35;;;;;;;4.22;1.35;;;20.30;99.90;;;;;;5035322;28;20032;-66
2022/08/12 07:21:02;;;;;;;1.20;1.08;;;20.50;99.60;;;;;;5035208;28;20028;-66
2022/08/12 07:23:30;;;;;;;3.05;0.68;;;20.60;99.30;;;;;;5035247;28;20120;-66
2022/08/12 07:26:00;;;;;;;2.33;1.00;;;21.00;98.60;;;;;;5035212;28;20363;-67
2022/08/12 07:28:30;;;;;;;0.95;0.75;;;21.50;97.60;;;;;;5035000;28;20025;-66
2022/08/12 07:30:56;;;;;;;0.80;0.80;;;22.00;95.70;;;;;;5053159;28;20455;-65
2022/08/12 07:33:28;;;;;;;1.67;1.20;;;22.40;94.60;;;;;;5053072;28;20436;-66
2022/08/12 07:35:57;;;;;;;1.90;0.68;;;22.30;93.00;;;;;;5053364;28;20112;-69
2022/08/12 07:38:28;;;;;;;2.03;0.90;;;22.60;93.00;;;;;;5035117;28;20061;-67
2022/08/12 07:40:59;;;;;;;2.30;1.30;;;22.80;91.60;;;;;;5035879;28;20053;-67
2022/08/12 07:43:26;;;;;;;3.47;0.90;;;23.00;91.20;;;;;;5038830;28;20536;-66
2022/08/12 07:45:53;;;;;;;5.35;0.90;;;23.00;90.00;;;;;;5038955;28;20124;-67
2022/08/12 07:48:19;;;;;;;2.03;1.00;;;23.00;90.00;;;;;;5038569;28;20033;-66
2022/08/12 07:50:45;;;;;;;0.77;0.75;;;23.20;89.50;;;;;;5056446;28;20083;-66
2022/08/12 07:53:10;;;;;;;1.42;0.80;;;23.30;87.40;;;;;;5056069;28;20033;-66
2022/08/12 07:55:36;;;;;;;1.15;0.90;;;23.60;85.60;;;;;;5056514;28;20027;-66
2022/08/12 07:58:02;;;;;;;1.83;0.77;;;23.90;84.00;;;;;;5056280;28;20462;-66
2022/08/12 08:00:31;;;;;;;1.85;1.25;;;24.10;81.40;;;;;;5056152;28;20107;-67
2022/08/12 08:02:57;;;;;;;;;;;24.40;80.50;;;;;;5039065;28;20044;-67
2022/08/12 08:05:25;;;;;;;2.08;0.90;;;24.50;78.50;;;;;;5056218;28;20003;-66
2022/08/12 08:07:52;;;;;;;1.20;0.90;;;24.80;77.80;;;;;;5056078;28;20021;-66
2022/08/12 08:10:19;;;;;;;4.07;1.20;;;25.20;77.50;;;;;;5056082;28;20060;-66
2022/08/12 08:13:03;;;;;;;1.15;1.05;;;25.60;74.40;;;;;;5037986;28;20481;-70
2022/08/12 08:15:30;;;;;;;4.70;1.48;;;25.50;72.30;;;;;;5038207;28;20060;-67
2022/08/12 08:18:02;;;;;;;1.17;0.80;;;25.90;72.10;;;;;;5037983;28;20040;-67
2022/08/12 08:20:35;;;;;;;1.75;1.13;;;26.50;69.80;;;;;;5037821;28;20032;-67
2022/08/12 08:23:06;;;;;;;3.53;0.95;;;26.80;67.00;;;;;;5055679;28;20025;-67
2022/08/12 08:25:37;;;;;;;0.88;0.80;;;27.10;64.90;;;;;;5038476;28;20112;-68
2022/08/12 08:28:15;;;;;;;3.65;0.90;;;27.20;64.10;;;;;;5055986;28;20025;-67
2022/08/12 08:30:43;;;;;;;;;;;27.60;61.90;;;;;;5056388;28;20037;-68
2022/08/12 08:33:10;;;;;;;0.95;0.80;;;28.00;58.80;;;;;;5055655;28;19946;-67
2022/08/12 08:35:41;;;;;;;1.27;0.73;;;28.00;57.10;;;;;;5055677;28;20033;-68
2022/08/12 08:38:12;;;;;;;2.38;0.73;;;27.60;56.30;;;;;;5055482;28;20064;-67
2022/08/12 08:43:24;;;;;;;6.30;0.60;;;27.30;56.50;;;;;;5055693;28;20122;-68
2022/08/12 08:45:50;;;;;;;1.23;0.82;;;27.70;55.70;;;;;;5055673;28;20087;-67
2022/08/12 08:48:16;;;;;;;1.23;0.70;;;28.10;55.80;;;;;;5037491;28;20025;-68
2022/08/12 08:50:43;;;;;;;0.50;0.50;;;28.20;54.40;;;;;;5055286;28;20032;-68
2022/08/12 08:53:10;;;;;;;0.80;0.60;;;28.20;54.30;;;;;;5037220;28;20028;-68
2022/08/12 08:55:35;;;;;;;0.98;0.60;;;28.40;53.60;;;;;;5037318;28;20032;-68
2022/08/12 08:58:02;;;;;;;4.57;1.02;;;28.70;52.80;;;;;;5054836;28;20029;-67
2022/08/12 09:00:29;;;;;;;2.15;0.60;;;28.10;53.40;;;;;;5037264;28;20051;-68
2022/08/12 09:02:54;;;;;;;1.20;0.60;;;28.50;54.00;;;;;;5055196;28;20033;-67
2022/08/12 09:05:20;;;;;;;2.83;1.02;;;28.60;53.00;;;;;;5054738;28;20390;-68
2022/08/12 09:07:48;;;;;;;0.88;0.88;;;29.00;52.90;;;;;;5054712;28;20025;-68
2022/08/12 09:10:18;;;;;;;1.20;1.00;;;29.30;51.90;;;;;;5036989;28;20063;-68
2022/08/12 09:15:30;;;;;;;1.00;0.50;;;30.20;50.20;;;;;;5054991;28;20027;-68
2022/08/12 09:17:57;;;;;;;3.75;1.15;;;30.40;48.80;;;;;;5054418;28;20043;-68
2022/08/12 09:20:25;;;;;;;1.13;0.88;;;30.30;48.20;;;;;;5054636;28;20082;-68
2022/08/12 09:22:51;;;;;;;2.00;0.80;;;30.30;48.20;;;;;;5054894;28;20021;-69
2022/08/12 09:25:17;;;;;;;0.68;0.55;;;29.80;47.50;;;;;;5054579;28;20044;-69
2022/08/12 09:27:43;;;;;;;2.85;0.85;;;29.90;48.90;;;;;;5037027;28;20029;-69
2022/08/12 09:30:14;;;;;;;0.75;0.75;;;30.20;47.60;;;;;;5054353;28;20484;-69
2022/08/12 09:32:41;;;;;;;6.97;1.00;;;30.20;47.70;;;;;;5054597;28;20033;-72
2022/08/12 09:35:07;;;;;;;0.80;0.80;;;30.30;48.30;;;;;;5054500;28;20104;-68
2022/08/12 09:37:33;;;;;;;1.00;1.00;;;30.60;48.10;;;;;;5054435;28;20557;-68
2022/08/12 09:39:58;;;;;;;2.30;1.10;;;30.20;47.10;;;;;;5054125;28;20072;-67
2022/08/12 09:45:21;;;;;;;3.25;0.82;;;29.80;46.50;;;;;;5054000;28;20083;-68
2022/08/12 09:47:46;;;;;;;;;;;29.80;46.90;;;;;;5054845;28;20025;-67
2022/08/12 09:50:16;;;;;;;1.38;0.88;;;30.10;46.60;;;;;;5054187;28;19905;-69
2022/08/12 09:52:44;;;;;;;4.57;0.90;;;30.30;45.60;;;;;;5054115;28;20028;-67
2022/08/12 09:55:10;;;;;;;2.08;0.70;;;30.80;44.20;;;;;;5054146;28;20021;-67
2022/08/12 09:57:36;;;;;;;3.08;0.75;;;31.00;43.30;;;;;;5054295;28;20021;-66
2022/08/12 10:00:18;;;;;;;2.58;0.55;;;29.80;44.30;;;;;;5053668;28;20414;-66
2022/08/12 10:03:05;;;;;;;1.95;0.50;;;29.20;45.10;;;;;;5054135;28;20037;-66
2022/08/12 10:05:35;;;;;;;1.95;0.40;;;29.50;44.90;;;;;;5054246;28;20127;-65
2022/08/12 10:08:03;;;;;;;1.95;0.63;;;30.40;44.70;;;;;;5053882;28;20028;-66
2022/08/12 10:10:30;;;;;;;0.88;0.82;;;31.10;43.70;;;;;;5053782;28;20363;-66
2022/08/12 10:15:44;;;;;;;;;;;30.80;42.50;;;;;;5054558;28;20032;-67
2022/08/12 10:18:11;;;;;;;3.03;0.90;;;30.60;42.40;;;;;;5053736;28;19905;-66
2022/08/12 10:20:39;;;;;;;1.63;0.80;;;30.70;43.30;;;;;;5054042;28;20020;-65
2022/08/12 10:23:04;;;;;;;1.20;0.60;;;31.30;42.70;;;;;;5053611;28;20041;-65
2022/08/12 10:30:59;;;;;;;0.80;0.80;;;32.30;41.60;;;;;;5053748;28;20413;-65
2022/08/12 10:33:25;;;;;;;1.25;0.60;;;32.50;40.20;;;;;;5054064;28;20025;-66
2022/08/12 10:35:52;;;;;;;1.58;0.70;;;32.30;40.60;;;;;;5053530;28;20496;-65
2022/08/12 10:38:18;;;;;;;2.17;0.80;;;31.20;40.00;;;;;;5053213;28;20204;-65
2022/08/12 10:43:41;;;;;;;2.03;1.50;;;30.20;42.30;;;;;;5053387;28;20615;-66
2022/08/12 10:46:18;;;;;;;3.03;0.85;;;30.10;42.60;;;;;;5053440;28;20471;-65
2022/08/12 10:48:47;;;;;;;0.77;0.77;;;30.80;41.50;;;;;;5052313;28;20040;-65
2022/08/12 10:51:14;;;;;;;2.13;0.85;;;30.90;41.30;;;;;;5053133;28;20499;-65
2022/08/12 10:53:43;;;;;;;5.22;1.13;;;30.90;41.20;;;;;;5053383;28;20047;-65
2022/08/12 10:56:10;;;;;;;0.70;0.70;;;31.40;41.20;;;;;;5035608;28;20056;-65
2022/08/12 10:58:37;;;;;;;1.38;0.88;;;30.70;41.20;;;;;;5035404;28;20035;-67
2022/08/12 11:01:05;;;;;;;1.77;1.00;;;31.40;41.50;;;;;;5052922;28;20493;-66
2022/08/12 11:03:36;;;;;;;2.55;0.68;;;31.60;40.20;;;;;;5053206;28;20128;-66
2022/08/12 11:06:06;;;;;;;2.00;0.68;;;31.40;40.30;;;;;;5053156;28;20051;-66
2022/08/12 11:08:34;;;;;;;3.33;0.80;;;31.90;40.80;;;;;;5053309;28;20025;-66
2022/08/12 11:11:00;;;;;;;1.10;0.90;;;32.10;39.50;;;;;;5053202;28;20104;-67
2022/08/12 11:13:26;;;;;;;1.67;0.30;;;32.20;39.20;;;;;;5053385;28;20029;-67
2022/08/12 11:15:54;;;;;;;2.42;0.80;;;32.60;39.80;;;;;;5053999;28;20074;-66
2022/08/12 11:18:21;;;;;;;2.47;0.70;;;32.50;37.90;;;;;;5056984;28;20037;-66
2022/08/12 11:20:47;;;;;;;1.83;0.57;;;32.60;39.50;;;;;;5057099;28;20350;-66
2022/08/12 11:23:13;;;;;;;1.23;0.80;;;32.70;38.90;;;;;;5057092;28;20048;-67
2022/08/12 11:25:41;;;;;;;3.20;0.60;;;33.20;38.40;;;;;;5057176;28;20021;-66
2022/08/12 11:28:07;;;;;;;3.38;0.80;;;32.60;36.60;;;;;;5056648;28;20360;-67
2022/08/12 11:30:32;;;;;;;7.07;1.50;;;31.80;38.00;;;;;;5057320;28;20059;-67
2022/08/12 11:32:58;;;;;;;1.27;0.70;;;31.60;39.10;;;;;;5056466;28;20060;-67
2022/08/12 11:35:23;;;;;;;1.10;0.77;;;31.30;38.80;;;;;;5056690;28;20438;-69
2022/08/12 11:37:49;;;;;;;2.05;0.60;;;31.20;39.20;;;;;;5056644;28;20029;-69
2022/08/12 11:40:15;;;;;;;0.73;0.73;;;31.90;38.00;;;;;;5056398;28;20071;-68
2022/08/12 11:42:40;;;;;;;1.25;0.68;;;32.10;38.10;;;;;;5038641;28;20470;-68
2022/08/12 11:45:07;;;;;;;0.60;0.60;;;32.20;38.90;;;;;;5056561;28;20029;-69
2022/08/12 11:47:32;;;;;;;2.78;0.70;;;32.70;38.10;;;;;;5056612;28;20028;-69
2022/08/12 11:49:58;;;;;;;0.90;0.50;;;33.50;37.30;;;;;;5038499;28;20028;-70
2022/08/12 11:52:24;;;;;;;1.13;0.80;;;34.20;35.90;;;;;;5056387;28;20108;-69
2022/08/12 11:54:49;;;;;;;1.58;0.80;;;34.10;35.30;;;;;;5056418;28;20155;-69
2022/08/12 11:57:15;;;;;;;0.93;0.60;;;34.00;35.80;;;;;;5038732;28;20025;-70
2022/08/12 11:59:41;;;;;;;2.17;0.60;;;34.30;36.00;;;;;;5056075;28;20371;-69
2022/08/12 12:02:06;;;;;;;0.40;0.40;;;35.00;34.70;;;;;;5056280;28;20528;-69
2022/08/12 12:04:32;;;;;;;1.95;0.80;;;34.80;34.00;;;;;;5038013;28;20188;-69
2022/08/12 12:06:58;;;;;;;1.13;1.10;;;34.60;34.60;;;;;;5056072;28;20033;-69
2022/08/12 12:09:24;;;;;;;0.60;0.60;;;34.40;34.30;;;;;;5056041;28;20052;-69
2022/08/12 12:11:49;;;;;;;2.55;1.08;;;34.40;33.80;;;;;;5056191;28;20394;-68
2022/08/12 12:14:15;;;;;;;1.80;0.63;;;34.20;34.10;;;;;;5055967;28;20025;-68
2022/08/12 12:16:41;;;;;;;1.48;0.75;;;32.80;35.00;;;;;;5055988;28;20036;-68
2022/08/12 12:19:10;;;;;;;0.93;0.60;;;32.90;35.60;;;;;;5038610;28;20087;-68
2022/08/12 12:21:35;;;;;;;1.27;0.57;;;32.60;35.50;;;;;;5055791;28;20039;-68
2022/08/12 12:24:01;;;;;;;8.18;1.20;;;32.50;35.80;;;;;;5055806;28;20025;-69
2022/08/12 12:26:27;;;;;;;0.77;0.70;;;32.90;35.50;;;;;;5055327;28;20054;-69
2022/08/12 12:28:52;;;;;;;0.70;0.60;;;33.30;34.30;;;;;;5055945;28;20083;-63
2022/08/12 12:31:18;;;;;;;3.47;0.82;;;33.80;34.90;;;;;;5055621;28;20060;-63
2022/08/12 12:33:44;;;;;;;3.78;0.60;;;34.20;34.20;;;;;;5055452;28;20477;-64
2022/08/12 12:36:09;;;;;;;0.50;0.50;;;34.60;34.10;;;;;;5037746;28;20028;-63
2022/08/12 12:38:35;;;;;;;2.22;0.70;;;33.90;35.50;;;;;;5055938;28;20112;-63
2022/08/12 12:41:00;;;;;;;1.08;0.50;;;34.10;37.80;;;;;;5055532;28;20056;-63
2022/08/12 12:43:26;;;;;;;1.52;0.47;;;34.20;35.20;;;;;;5037545;28;20063;-64
2022/08/12 12:45:52;;;;;;;0.82;0.60;;;34.10;34.10;;;;;;5054992;28;20021;-63
2022/08/12 12:48:19;;;;;;;1.70;0.88;;;33.80;34.80;;;;;;5037132;28;20056;-64
2022/08/12 12:50:47;;;;;;;2.27;0.70;;;33.50;35.20;;;;;;5055387;28;20112;-63
2022/08/12 12:53:21;;;;;;;1.00;0.75;;;33.70;35.30;;;;;;5037080;28;20037;-64
2022/08/12 12:55:47;;;;;;;2.63;0.80;;;33.60;35.60;;;;;;5055291;28;20024;-63
2022/08/12 12:58:16;;;;;;;2.17;0.70;;;33.60;34.30;;;;;;5055169;28;20025;-64
2022/08/12 13:00:43;;;;;;;2.72;0.52;;;34.00;34.80;;;;;;5054904;28;20025;-63
2022/08/12 13:03:17;;;;;;;0.75;0.68;;;34.40;33.70;;;;;;5037155;28;20462;-69
2022/08/12 13:05:43;;;;;;;0.60;0.60;;;34.50;33.30;;;;;;5035767;28;20112;-68
2022/08/12 13:08:25;;;;;;;2.53;0.60;;;34.50;32.80;;;;;;5039584;28;20128;-69
2022/08/12 13:10:53;;;;;;;0.65;0.52;;;34.90;31.60;;;;;;5054881;28;20497;-69
2022/08/12 13:13:20;;;;;;;2.67;0.43;;;34.70;31.40;;;;;;5055144;28;20473;-69
2022/08/12 13:15:48;;;;;;;2.85;0.50;;;34.20;31.90;;;;;;5036581;28;20064;-69
2022/08/12 13:18:15;;;;;;;3.00;0.57;;;33.80;32.10;;;;;;5037426;28;20044;-68
2022/08/12 13:20:50;;;;;;;0.20;0.20;;;33.90;31.90;;;;;;5054908;28;20040;-68
2022/08/12 13:23:17;;;;;;;3.50;0.50;;;34.40;32.10;;;;;;5036774;28;20033;-68
2022/08/12 13:25:43;;;;;;;2.10;0.45;;;35.20;31.00;;;;;;5036694;28;20081;-69
2022/08/12 13:28:23;;;;;;;1.95;0.50;;;36.00;30.80;;;;;;5054573;28;20592;-69
2022/08/12 13:30:51;;;;;;;1.00;0.30;;;34.80;30.80;;;;;;5054785;28;20106;-69
2022/08/12 13:33:24;;;;;;;3.30;0.60;;;34.10;31.80;;;;;;5036467;28;20021;-73
2022/08/12 13:35:57;;;;;;;1.50;0.50;;;33.80;34.40;;;;;;5036276;28;20036;-74
2022/08/12 13:38:37;;;;;;;0.70;0.38;;;33.20;34.90;;;;;;5053392;28;20082;-75
2022/08/12 13:41:04;;;;;;;0.43;0.32;;;34.40;33.40;;;;;;5036450;28;20087;-75
2022/08/12 13:43:31;;;;;;;0.80;0.50;;;35.70;31.90;;;;;;5054522;28;20025;-74
2022/08/12 13:45:58;;;;;;;0.38;0.38;;;36.20;31.30;;;;;;5036382;28;20422;-73
2022/08/12 13:48:23;;;;;;;0.43;0.43;;;36.60;30.80;;;;;;5054256;28;20052;-73
2022/08/12 13:50:49;;;;;;;1.75;0.30;;;36.10;30.00;;;;;;5052475;28;20417;-74
2022/08/12 13:53:16;;;;;;;0.40;0.40;;;35.60;31.30;;;;;;5052188;28;20021;-74
2022/08/12 13:55:44;;;;;;;0.40;0.40;;;36.20;31.40;;;;;;5036222;28;20377;-74
2022/08/12 13:58:12;;;;;;;0.40;0.33;;;36.00;30.10;;;;;;5036085;28;20818;-73
2022/08/12 14:00:38;;;;;;;0.60;0.60;;;36.20;30.20;;;;;;5036495;28;20025;-74
2022/08/12 14:03:04;;;;;;;1.13;0.40;;;36.50;30.30;;;;;;5035959;28;20100;-74
2022/08/12 14:05:32;;;;;;;2.10;0.50;;;35.80;30.40;;;;;;5054213;28;20033;-74
2022/08/12 14:08:04;;;;;;;2.33;0.50;;;35.20;30.70;;;;;;5036282;28;20387;-74
2022/08/12 14:10:39;;;;;;;1.67;0.70;;;35.70;31.20;;;;;;5041369;28;20459;-74
2022/08/12 14:13:19;;;;;;;2.03;0.50;;;36.60;30.90;;;;;;5053135;28;20033;-74
2022/08/12 14:15:51;;;;;;;2.75;0.57;;;36.50;30.50;;;;;;5053869;28;20021;-74
2022/08/12 14:18:22;;;;;;;0.40;0.40;;;36.20;30.00;;;;;;5053739;28;20049;-74
2022/08/12 14:21:02;;;;;;;2.22;0.30;;;36.70;30.40;;;;;;5052744;28;20032;-74
2022/08/12 14:23:33;;;;;;;1.65;1.20;;;36.80;30.40;;;;;;5053771;28;20108;-74
2022/08/12 14:26:01;;;;;;;2.55;0.70;;;36.20;31.00;;;;;;5053756;28;20029;-74
2022/08/12 14:28:31;;;;;;;2.60;0.47;;;35.90;30.90;;;;;;5053711;28;20029;-74
2022/08/12 14:30:59;;;;;;;0.32;0.32;;;35.40;31.60;;;;;;5052434;28;20095;-74
2022/08/12 14:33:37;;;;;;;3.55;0.45;;;35.70;31.70;;;;;;5053590;28;20025;-74
2022/08/12 14:36:05;;;;;;;0.68;0.55;;;36.10;31.60;;;;;;5053828;28;20060;-74
2022/08/12 14:38:38;;;;;;;1.83;0.50;;;35.00;32.30;;;;;;5053223;28;20033;-74
2022/08/12 14:41:10;;;;;;;0.82;0.40;;;35.50;31.90;;;;;;5053223;28;20076;-74
2022/08/12 14:43:37;;;;;;;2.65;0.30;;;36.10;31.20;;;;;;5053538;28;20039;-74